createdAt,value
2023-02-24T00:00:37.908Z,1.13
2023-02-24T00:03:11.161Z,0.63
2023-02-24T00:05:44.447Z,0.80
2023-02-24T00:08:13.841Z,1.10
2023-02-24T00:10:41.916Z,1.20
2023-02-24T00:13:12.033Z,0.80
2023-02-24T00:15:40.131Z,1.27
2023-02-24T00:18:08.314Z,1.13
2023-02-24T00:20:36.409Z,1.03
2023-02-24T00:23:04.662Z,1.00
2023-02-24T00:25:33.904Z,0.87
2023-02-24T00:28:02.360Z,0.83
2023-02-24T00:30:32.969Z,0.77
2023-02-24T00:33:02.847Z,1.13
2023-02-24T00:35:30.841Z,1.17
2023-02-24T00:37:58.894Z,1.20
2023-02-24T00:40:26.831Z,1.47
2023-02-24T00:42:56.108Z,0.80
2023-02-24T00:45:24.011Z,1.10
2023-02-24T00:47:52.201Z,0.80
2023-02-24T00:50:20.288Z,1.20
2023-02-24T00:52:49.620Z,1.17
2023-02-24T00:55:19.264Z,1.00
2023-02-24T00:57:47.174Z,1.37
2023-02-24T01:00:19.954Z,1.13
2023-02-24T01:02:47.947Z,1.03
2023-02-24T01:05:16.138Z,0.97
2023-02-24T01:07:44.059Z,1.00
2023-02-24T01:10:13.056Z,1.23
2023-02-24T01:12:49.752Z,0.90
2023-02-24T01:15:20.923Z,0.93
2023-02-24T01:17:49.173Z,1.33
2023-02-24T01:20:18.452Z,1.10
2023-02-24T01:22:51.312Z,0.77
2023-02-24T01:25:20.652Z,0.93
2023-02-24T01:27:48.948Z,1.20
2023-02-24T01:30:18.388Z,0.90
2023-02-24T01:32:48.560Z,1.60
2023-02-24T01:35:17.691Z,0.97
2023-02-24T01:37:46.015Z,0.90
2023-02-24T01:40:20.760Z,1.50
2023-02-24T01:42:49.571Z,1.07
2023-02-24T01:45:28.715Z,1.40
2023-02-24T01:48:01.836Z,1.20
2023-02-24T01:50:30.496Z,0.93
2023-02-24T01:53:01.745Z,1.00
2023-02-24T01:55:32.299Z,1.00
2023-02-24T01:58:02.996Z,1.20
2023-02-24T02:00:47.745Z,1.03
2023-02-24T02:03:27.682Z,1.33
2023-02-24T02:05:59.593Z,1.03
2023-02-24T02:08:28.111Z,1.90
2023-02-24T02:10:58.964Z,0.97
2023-02-24T02:13:28.571Z,0.93
2023-02-24T02:16:04.714Z,0.90
2023-02-24T02:18:42.968Z,1.20
2023-02-24T02:21:58.893Z,1.30
2023-02-24T02:24:41.886Z,0.80
2023-02-24T02:27:23.470Z,0.70
2023-02-24T02:30:26.223Z,0.87
2023-02-24T02:33:31.772Z,1.10
2023-02-24T02:36:07.096Z,1.00
2023-02-24T02:38:39.156Z,0.40
2023-02-24T02:41:14.625Z,0.90
2023-02-24T02:43:49.044Z,1.20
2023-02-24T02:46:20.865Z,0.87
2023-02-24T02:48:51.049Z,0.77
2023-02-24T02:51:23.287Z,1.13
2023-02-24T02:53:57.420Z,0.93
2023-02-24T02:56:30.611Z,0.80
2023-02-24T02:58:59.716Z,1.17
2023-02-24T03:01:29.764Z,0.80
2023-02-24T03:04:01.279Z,1.00
2023-02-24T03:06:32.954Z,1.27
2023-02-24T03:09:12.445Z,0.50
2023-02-24T03:11:41.468Z,0.97
2023-02-24T03:14:12.989Z,0.87
2023-02-24T03:16:41.690Z,1.50
2023-02-24T03:19:11.621Z,0.90
2023-02-24T03:21:42.377Z,1.03
2023-02-24T03:24:10.965Z,0.93
2023-02-24T03:26:43.156Z,0.83
2023-02-24T03:29:18.368Z,1.07
2023-02-24T03:31:49.016Z,0.77
2023-02-24T03:34:20.460Z,0.90
2023-02-24T03:36:49.753Z,0.90
2023-02-24T03:39:18.039Z,1.03
2023-02-24T03:41:54.195Z,0.90
2023-02-24T03:44:22.152Z,1.33
2023-02-24T03:46:50.108Z,1.03
2023-02-24T03:49:18.013Z,0.80
2023-02-24T03:51:57.045Z,1.10
2023-02-24T03:54:34.584Z,0.90
2023-02-24T03:57:13.138Z,0.67
2023-02-24T03:59:48.016Z,1.03
2023-02-24T04:02:19.980Z,1.17
2023-02-24T04:04:53.086Z,1.20
2023-02-24T04:07:34.461Z,1.20
2023-02-24T04:10:09.377Z,0.70
2023-02-24T04:12:42.784Z,0.90
2023-02-24T04:15:14.795Z,0.90
2023-02-24T04:17:45.637Z,0.77
2023-02-24T04:20:16.577Z,0.70
2023-02-24T04:22:49.949Z,1.40
2023-02-24T04:25:19.656Z,0.80
2023-02-24T04:27:48.467Z,0.90
2023-02-24T04:30:16.608Z,1.07
2023-02-24T04:32:44.794Z,1.00
2023-02-24T04:35:15.491Z,1.57
2023-02-24T04:37:45.048Z,0.97
2023-02-24T04:40:17.745Z,1.40
2023-02-24T04:42:49.151Z,1.10
2023-02-24T04:45:18.648Z,0.83
2023-02-24T04:47:50.900Z,0.63
2023-02-24T04:50:23.927Z,0.77
2023-02-24T04:52:53.173Z,1.00
2023-02-24T04:55:25.213Z,0.77
2023-02-24T04:57:53.993Z,1.30
2023-02-24T05:00:23.101Z,1.10
2023-02-24T05:02:51.640Z,1.10
2023-02-24T05:05:25.502Z,1.23
2023-02-24T05:07:54.610Z,1.30
2023-02-24T05:10:28.015Z,0.97
2023-02-24T05:12:58.274Z,1.10
2023-02-24T05:15:31.305Z,1.07
2023-02-24T05:18:00.870Z,0.90
2023-02-24T05:20:46.641Z,9.87
2023-02-24T05:23:16.940Z,9.77
2023-02-24T05:25:46.471Z,1.77
2023-02-24T05:28:14.394Z,1.77
2023-02-24T05:30:42.321Z,1.77
2023-02-24T05:33:10.698Z,1.17
2023-02-24T05:35:39.546Z,1.37
2023-02-24T05:38:08.333Z,1.30
2023-02-24T05:40:36.459Z,1.27
2023-02-24T05:43:05.891Z,1.37
2023-02-24T05:45:34.452Z,1.20
2023-02-24T05:48:05.817Z,1.87
2023-02-24T05:50:34.207Z,1.33
2023-02-24T05:53:03.471Z,1.40
2023-02-24T05:55:31.963Z,1.30
2023-02-24T05:58:00.345Z,1.40
2023-02-24T06:00:29.868Z,1.63
2023-02-24T06:03:08.493Z,1.40
2023-02-24T06:05:39.766Z,1.30
2023-02-24T06:08:11.783Z,1.40
2023-02-24T06:10:41.536Z,1.30
2023-02-24T06:13:10.402Z,1.50
2023-02-24T06:15:41.803Z,1.40
2023-02-24T06:18:11.669Z,1.67
2023-02-24T06:20:40.356Z,1.77
2023-02-24T06:23:08.863Z,1.40
2023-02-24T06:25:38.653Z,1.73
2023-02-24T06:28:06.715Z,1.80
2023-02-24T06:30:35.158Z,1.60
2023-02-24T06:33:05.873Z,1.40
2023-02-24T06:35:38.915Z,1.90
2023-02-24T06:38:06.797Z,2.33
2023-02-24T06:40:34.733Z,2.00
2023-02-24T06:43:02.901Z,1.30
2023-02-24T06:45:32.173Z,2.00
2023-02-24T06:48:00.159Z,1.87
2023-02-24T06:50:29.473Z,1.50
2023-02-24T06:53:00.704Z,1.43
2023-02-24T06:55:28.936Z,1.20
2023-02-24T06:57:58.199Z,1.40
2023-02-24T07:00:37.167Z,1.57
2023-02-24T07:03:14.862Z,1.53
2023-02-24T07:05:50.391Z,4.33
2023-02-24T07:08:19.815Z,1.50
2023-02-24T07:10:53.453Z,1.50
2023-02-24T07:13:21.824Z,1.50
2023-02-24T07:15:50.165Z,1.57
2023-02-24T07:18:18.453Z,1.63
2023-02-24T07:20:47.767Z,1.83
2023-02-24T07:23:16.140Z,1.30
2023-02-24T07:25:46.442Z,1.47
2023-02-24T07:28:14.523Z,1.77
2023-02-24T07:30:43.093Z,1.40
2023-02-24T07:33:12.053Z,1.30
2023-02-24T07:35:41.563Z,1.70
2023-02-24T07:38:11.085Z,1.80
2023-02-24T07:40:41.100Z,1.20
2023-02-24T07:43:08.974Z,1.33
2023-02-24T07:45:36.972Z,1.00
2023-02-24T07:48:05.052Z,1.20
2023-02-24T07:50:33.727Z,1.40
2023-02-24T07:53:05.021Z,1.20
2023-02-24T07:55:36.257Z,1.83
2023-02-24T07:58:06.091Z,1.20
2023-02-24T08:00:50.211Z,1.30
2023-02-24T08:03:18.283Z,1.20
2023-02-24T08:05:48.757Z,1.33
2023-02-24T08:08:21.084Z,1.93
2023-02-24T08:10:50.481Z,3.83
2023-02-24T08:13:19.195Z,1.60
2023-02-24T08:15:56.569Z,1.10
2023-02-24T08:18:24.745Z,1.07
2023-02-24T08:20:53.682Z,1.50
2023-02-24T08:23:23.624Z,1.57
2023-02-24T08:25:53.867Z,1.60
2023-02-24T08:28:26.861Z,1.87
2023-02-24T08:30:54.961Z,1.80
2023-02-24T08:33:24.236Z,1.90
2023-02-24T08:36:03.248Z,1.73
2023-02-24T08:38:41.980Z,2.20
2023-02-24T08:41:18.221Z,2.23
2023-02-24T08:43:47.514Z,2.00
2023-02-24T08:46:26.377Z,1.73
2023-02-24T08:48:56.577Z,1.90
2023-02-24T08:51:30.787Z,2.73
2023-02-24T08:54:01.407Z,3.70
2023-02-24T08:56:34.557Z,1.90
2023-02-24T08:59:06.421Z,1.93
2023-02-24T09:01:36.249Z,1.90
2023-02-24T09:04:06.653Z,1.77
2023-02-24T09:06:43.529Z,1.80
2023-02-24T09:09:22.608Z,1.40
2023-02-24T09:11:56.555Z,1.90
2023-02-24T09:14:28.722Z,1.60
2023-02-24T09:17:05.539Z,1.47
2023-02-24T09:19:54.877Z,1.60
2023-02-24T09:22:40.843Z,1.60
2023-02-24T09:25:21.788Z,1.40
2023-02-24T09:27:56.984Z,1.30
2023-02-24T09:30:50.995Z,1.23
2023-02-24T09:33:21.571Z,1.40
2023-02-24T09:35:52.069Z,1.60
2023-02-24T09:38:36.912Z,1.53
2023-02-24T09:41:26.488Z,1.30
2023-02-24T09:43:59.972Z,1.10
2023-02-24T09:46:28.032Z,1.50
2023-02-24T09:49:05.411Z,2.00
2023-02-24T09:51:42.307Z,1.53
2023-02-24T09:54:15.804Z,2.83
2023-02-24T09:56:49.309Z,1.90
2023-02-24T09:59:26.386Z,2.90
2023-02-24T10:02:02.269Z,2.10
2023-02-24T10:04:56.123Z,1.93
2023-02-24T10:07:36.243Z,1.70
2023-02-24T10:10:19.811Z,1.70
2023-02-24T10:12:53.760Z,1.40
2023-02-24T10:15:56.995Z,1.57
2023-02-24T10:18:30.602Z,2.37
2023-02-24T10:21:06.584Z,1.47
2023-02-24T10:23:45.381Z,2.30
2023-02-24T10:26:30.528Z,2.63
2023-02-24T10:29:09.027Z,1.90
2023-02-24T10:31:45.926Z,1.97
2023-02-24T10:34:20.254Z,2.03
2023-02-24T10:36:50.471Z,2.90
2023-02-24T10:39:25.360Z,2.30
2023-02-24T10:41:57.526Z,1.83
2023-02-24T10:44:27.011Z,2.33
2023-02-24T10:47:12.480Z,2.10
2023-02-24T10:50:02.718Z,2.07
2023-02-24T10:52:50.831Z,1.63
2023-02-24T10:55:29.263Z,2.17
2023-02-24T10:58:07.016Z,2.07
2023-02-24T11:01:12.523Z,2.37
2023-02-24T11:04:01.399Z,6.17
2023-02-24T11:06:48.189Z,2.80
2023-02-24T11:09:32.098Z,2.80
2023-02-24T11:12:18.936Z,3.37
2023-02-24T11:15:10.342Z,3.23
2023-02-24T11:17:45.726Z,2.70
2023-02-24T11:20:23.553Z,2.83
2023-02-24T11:22:55.911Z,2.40
2023-02-24T11:25:26.052Z,2.73
2023-02-24T11:27:56.056Z,4.07
2023-02-24T11:30:32.927Z,3.37
2023-02-24T11:33:13.407Z,2.07
2023-02-24T11:35:49.611Z,2.13
2023-02-24T11:38:28.158Z,2.50
2023-02-24T11:41:05.238Z,2.30
2023-02-24T11:43:34.966Z,3.93
2023-02-24T11:46:09.774Z,2.90
2023-02-24T11:48:39.525Z,2.63
2023-02-24T11:51:12.660Z,2.37
2023-02-24T11:53:47.258Z,3.90
2023-02-24T11:56:18.990Z,2.60
2023-02-24T11:58:52.527Z,3.43
2023-02-24T12:01:24.884Z,3.40
2023-02-24T12:03:56.456Z,2.67
2023-02-24T12:06:31.856Z,2.63
2023-02-24T12:09:07.807Z,4.30
2023-02-24T12:11:40.633Z,4.00
2023-02-24T12:14:21.379Z,4.57
2023-02-24T12:16:54.611Z,3.27
2023-02-24T12:19:29.932Z,3.60
2023-02-24T12:22:03.174Z,5.83
2023-02-24T12:24:31.072Z,6.10
2023-02-24T12:27:06.824Z,11.80
2023-02-24T12:30:06.460Z,3.73
2023-02-24T12:32:52.596Z,9.73
2023-02-24T12:35:26.728Z,6.10
2023-02-24T12:38:00.884Z,8.83
2023-02-24T12:40:46.448Z,5.20
2023-02-24T12:43:25.320Z,5.27
2023-02-24T12:45:56.970Z,4.03
2023-02-24T12:48:49.836Z,3.67
2023-02-24T12:51:23.494Z,3.03
2023-02-24T12:53:58.942Z,3.03
2023-02-24T12:56:28.983Z,4.10
2023-02-24T12:58:59.900Z,2.80
2023-02-24T13:01:32.650Z,3.00
2023-02-24T13:04:09.189Z,3.43
2023-02-24T13:06:49.877Z,3.53
2023-02-24T13:09:27.714Z,3.33
2023-02-24T13:12:30.153Z,2.83
2023-02-24T13:14:58.278Z,2.87
2023-02-24T13:17:28.026Z,3.10
2023-02-24T13:19:57.442Z,3.07
2023-02-24T13:22:30.360Z,2.50
2023-02-24T13:25:11.949Z,2.40
2023-02-24T13:27:41.975Z,2.50
2023-02-24T13:30:26.794Z,2.67
2023-02-24T13:33:05.681Z,2.47
2023-02-24T13:35:36.783Z,3.10
2023-02-24T13:38:23.913Z,2.20
2023-02-24T13:40:53.244Z,2.53
2023-02-24T13:43:27.350Z,3.07
2023-02-24T13:45:59.133Z,2.97
2023-02-24T13:48:41.230Z,2.87
2023-02-24T13:51:20.074Z,2.47
2023-02-24T13:54:02.648Z,2.23
2023-02-24T13:56:39.027Z,2.17
2023-02-24T13:59:19.182Z,2.23
2023-02-24T14:01:49.870Z,2.43
2023-02-24T14:04:20.280Z,2.93
2023-02-24T14:06:50.323Z,2.37
2023-02-24T14:09:22.645Z,2.00
2023-02-24T14:11:54.909Z,1.60
2023-02-24T14:14:23.072Z,3.00
2023-02-24T14:16:54.552Z,1.80
2023-02-24T14:19:22.769Z,1.37
2023-02-24T14:21:52.983Z,2.00
2023-02-24T14:24:21.473Z,1.70
2023-02-24T14:26:52.388Z,2.20
2023-02-24T14:29:24.200Z,1.63
2023-02-24T14:31:54.042Z,1.10
2023-02-24T14:34:23.892Z,1.90
2023-02-24T14:36:54.392Z,1.37
2023-02-24T14:39:23.884Z,2.20
2023-02-24T14:41:53.652Z,1.40
2023-02-24T14:44:25.360Z,1.20
2023-02-24T14:46:54.308Z,1.17
2023-02-24T14:49:24.297Z,1.20
2023-02-24T14:51:56.040Z,1.20
2023-02-24T14:54:33.429Z,1.03
2023-02-24T14:57:01.750Z,1.00
2023-02-24T14:59:34.304Z,1.17
2023-02-24T15:02:03.766Z,1.07
2023-02-24T15:04:36.860Z,0.80
2023-02-24T15:07:07.623Z,1.33
2023-02-24T15:09:37.078Z,1.20
2023-02-24T15:12:30.048Z,2.00
2023-02-24T15:15:02.298Z,1.00
2023-02-24T15:17:30.511Z,0.90
2023-02-24T15:19:58.436Z,1.40
2023-02-24T15:22:28.485Z,0.90
2023-02-24T15:24:58.008Z,0.77
2023-02-24T15:27:28.720Z,0.77
2023-02-24T15:30:07.036Z,1.00
2023-02-24T15:32:37.809Z,1.00
2023-02-24T15:35:07.884Z,0.73
2023-02-24T15:37:42.053Z,0.70
2023-02-24T15:40:20.857Z,0.80
2023-02-24T15:42:52.426Z,0.83
2023-02-24T15:45:28.940Z,2.17
2023-02-24T15:47:58.192Z,1.53
2023-02-24T15:50:26.262Z,1.63
2023-02-24T15:52:54.211Z,2.27
2023-02-24T15:55:29.108Z,1.10
2023-02-24T15:58:01.655Z,4.83
2023-02-24T16:00:32.351Z,1.33
2023-02-24T16:03:00.322Z,1.70
2023-02-24T16:05:28.294Z,1.27
2023-02-24T16:07:56.294Z,2.10
2023-02-24T16:10:26.440Z,2.73
2023-02-24T16:12:55.992Z,2.53
2023-02-24T16:15:26.992Z,2.37
2023-02-24T16:17:56.761Z,2.13
2023-02-24T16:20:41.780Z,1.33
2023-02-24T16:23:11.731Z,1.33
2023-02-24T16:25:42.654Z,3.20
2023-02-24T16:28:14.537Z,2.00
2023-02-24T16:30:42.576Z,1.30
2023-02-24T16:33:13.813Z,2.70
2023-02-24T16:35:44.333Z,1.40
2023-02-24T16:38:15.144Z,1.53
2023-02-24T16:40:45.098Z,1.80
2023-02-24T16:43:13.499Z,1.53
2023-02-24T16:45:41.996Z,1.57
2023-02-24T16:48:17.336Z,2.20
2023-02-24T16:50:45.359Z,1.73
2023-02-24T16:53:16.168Z,2.43
2023-02-24T16:55:44.298Z,1.80
2023-02-24T16:58:12.645Z,1.77
2023-02-24T17:00:41.226Z,4.83
2023-02-24T17:03:20.594Z,2.40
2023-02-24T17:05:48.682Z,2.40
2023-02-24T17:08:17.354Z,2.20
2023-02-24T17:10:46.144Z,2.17
2023-02-24T17:13:17.135Z,1.83
2023-02-24T17:15:45.133Z,2.13
2023-02-24T17:18:13.317Z,1.93
2023-02-24T17:20:43.376Z,2.07
2023-02-24T17:23:12.239Z,2.57
2023-02-24T17:25:40.234Z,2.17
2023-02-24T17:28:08.480Z,2.93
2023-02-24T17:30:37.394Z,2.70
2023-02-24T17:33:05.513Z,2.60
2023-02-24T17:35:33.460Z,2.20
2023-02-24T17:38:04.511Z,2.17
2023-02-24T17:40:32.464Z,2.47
2023-02-24T17:43:00.403Z,2.33
2023-02-24T17:45:28.382Z,2.10
2023-02-24T17:47:56.304Z,2.13
2023-02-24T17:50:24.250Z,3.53
2023-02-24T17:52:52.177Z,2.57
2023-02-24T17:55:21.544Z,2.60
2023-02-24T17:57:49.479Z,2.57
2023-02-24T18:00:18.298Z,2.93
2023-02-24T18:02:46.278Z,2.50
2023-02-24T18:05:14.293Z,2.53
2023-02-24T18:07:42.222Z,2.87
2023-02-24T18:10:11.188Z,2.80
2023-02-24T18:12:40.522Z,2.40
2023-02-24T18:15:09.719Z,3.30
2023-02-24T18:17:38.405Z,3.30
2023-02-24T18:20:07.226Z,2.77
2023-02-24T18:22:35.169Z,3.60
2023-02-24T18:25:03.131Z,2.63
2023-02-24T18:27:31.106Z,2.60
2023-02-24T18:30:00.367Z,3.90
2023-02-24T18:32:28.456Z,3.17
2023-02-24T18:34:56.413Z,3.13
2023-02-24T18:37:24.293Z,2.60
2023-02-24T18:39:53.350Z,2.97
2023-02-24T18:42:21.358Z,2.47
2023-02-24T18:44:49.468Z,3.07
2023-02-24T18:47:18.821Z,2.97
2023-02-24T18:49:46.894Z,3.33
2023-02-24T18:52:14.831Z,2.37
2023-02-24T18:54:42.783Z,3.23
2023-02-24T18:57:10.683Z,3.03
2023-02-24T18:59:38.772Z,2.60
2023-02-24T19:02:06.746Z,2.43
2023-02-24T19:04:36.070Z,2.40
2023-02-24T19:07:04.277Z,2.87
2023-02-24T19:09:32.187Z,2.47
2023-02-24T19:12:01.416Z,2.83
2023-02-24T19:14:29.608Z,3.17
2023-02-24T19:16:57.513Z,2.80
2023-02-24T19:19:25.705Z,2.00
2023-02-24T19:21:55.016Z,2.00
2023-02-24T19:24:22.918Z,2.40
2023-02-24T19:26:51.242Z,2.60
2023-02-24T19:29:20.469Z,2.10
2023-02-24T19:31:53.861Z,2.30
2023-02-24T19:34:22.661Z,2.80
2023-02-24T19:36:50.561Z,1.87
2023-02-24T19:39:19.959Z,2.60
2023-02-24T19:41:49.626Z,1.77
2023-02-24T19:44:17.769Z,3.60
2023-02-24T19:46:45.853Z,2.37
2023-02-24T19:49:13.768Z,2.27
2023-02-24T19:51:42.950Z,3.73
2023-02-24T19:54:13.810Z,3.23
2023-02-24T19:56:44.086Z,4.77
2023-02-24T19:59:12.266Z,4.17
2023-02-24T20:01:40.313Z,2.93
2023-02-24T20:04:09.377Z,3.80
2023-02-24T20:06:38.858Z,2.90
2023-02-24T20:09:07.644Z,3.33
2023-02-24T20:11:36.264Z,3.00
2023-02-24T20:14:05.971Z,3.53
2023-02-24T20:16:34.917Z,3.30
2023-02-24T20:19:03.217Z,2.77
2023-02-24T20:21:31.486Z,3.40
2023-02-24T20:24:00.841Z,3.37
2023-02-24T20:26:29.238Z,2.70
2023-02-24T20:28:57.612Z,2.93
2023-02-24T20:31:27.305Z,3.43
2023-02-24T20:33:56.491Z,3.60
2023-02-24T20:36:29.051Z,2.50
2023-02-24T20:38:58.686Z,2.70
2023-02-24T20:41:27.667Z,2.63
2023-02-24T20:43:55.956Z,4.13
2023-02-24T20:46:25.540Z,2.40
2023-02-24T20:48:57.667Z,2.90
2023-02-24T20:51:26.041Z,3.30
2023-02-24T20:53:58.212Z,3.23
2023-02-24T20:56:27.063Z,5.50
2023-02-24T20:58:59.915Z,2.67
2023-02-24T21:01:28.934Z,3.13
2023-02-24T21:03:58.369Z,3.77
2023-02-24T21:06:28.949Z,3.20
2023-02-24T21:08:57.027Z,2.57
2023-02-24T21:11:25.137Z,2.67
2023-02-24T21:13:53.396Z,2.40
2023-02-24T21:16:22.352Z,1.93
2023-02-24T21:18:51.550Z,2.27
2023-02-24T21:21:21.463Z,2.63
2023-02-24T21:23:52.156Z,2.13
2023-02-24T21:26:21.228Z,2.30
2023-02-24T21:28:49.554Z,2.33
2023-02-24T21:31:20.401Z,1.77
2023-02-24T21:33:51.549Z,2.10
2023-02-24T21:36:24.371Z,1.40
2023-02-24T21:38:52.996Z,1.63
2023-02-24T21:41:21.481Z,3.10
2023-02-24T21:43:53.939Z,1.13
2023-02-24T21:46:22.175Z,1.63
2023-02-24T21:48:54.746Z,1.30
2023-02-24T21:51:25.038Z,1.37
2023-02-24T21:53:55.036Z,1.40
2023-02-24T21:56:25.245Z,1.23
2023-02-24T21:58:54.780Z,1.27
2023-02-24T22:01:25.898Z,1.37
2023-02-24T22:03:55.259Z,1.00
2023-02-24T22:06:26.073Z,0.87
2023-02-24T22:08:55.621Z,1.00
2023-02-24T22:11:23.688Z,1.37
2023-02-24T22:13:51.768Z,1.10
2023-02-24T22:16:21.966Z,1.10
2023-02-24T22:18:50.869Z,1.00
2023-02-24T22:21:21.144Z,1.17
2023-02-24T22:23:52.275Z,1.03
2023-02-24T22:26:22.844Z,1.30
2023-02-24T22:28:51.095Z,1.13
2023-02-24T22:31:21.051Z,1.07
2023-02-24T22:33:50.062Z,1.70
2023-02-24T22:36:19.820Z,1.63
2023-02-24T22:38:48.161Z,1.40
2023-02-24T22:41:19.460Z,1.00
2023-02-24T22:43:47.763Z,1.20
2023-02-24T22:46:17.284Z,0.93
2023-02-24T22:48:45.508Z,0.67
2023-02-24T22:51:15.037Z,0.83
2023-02-24T22:53:46.549Z,1.20
2023-02-24T22:56:15.656Z,0.90
2023-02-24T22:58:45.317Z,1.00
2023-02-24T23:01:14.938Z,0.83
2023-02-24T23:03:43.580Z,0.90
2023-02-24T23:06:13.833Z,0.97
2023-02-24T23:08:43.296Z,0.90
2023-02-24T23:11:13.357Z,0.90
2023-02-24T23:13:42.564Z,0.90
2023-02-24T23:16:14.275Z,1.00
2023-02-24T23:18:48.520Z,1.37
2023-02-24T23:21:17.101Z,1.13
2023-02-24T23:23:45.057Z,1.13
2023-02-24T23:26:13.236Z,0.97
2023-02-24T23:28:41.345Z,0.50
2023-02-24T23:31:09.309Z,0.60
2023-02-24T23:33:40.908Z,0.70
2023-02-24T23:36:09.842Z,0.70
2023-02-24T23:38:37.740Z,1.10
2023-02-24T23:41:09.096Z,0.80
2023-02-24T23:43:37.064Z,0.60
2023-02-24T23:46:05.813Z,0.70
2023-02-24T23:48:33.810Z,0.67
2023-02-24T23:51:06.641Z,0.80
2023-02-24T23:53:38.417Z,0.70
2023-02-24T23:56:09.426Z,0.90
2023-02-24T23:58:38.362Z,0.60
